Franksville, Wisconsin
Current Conditions -  °F | °C
As of 5:53 PM on Monday 20 Oct 2014 (Local Time) from KRAC Reporting Station
Overcast Overcast  
Wind Chill: 53°   Ceiling: 4700
Heat Index: 53°   Visibility: 10mi
Dew Point: 42°   Wind: 6mph
Humidity: 66%   Direction: 310°NW
Pressure: 29.95"   Gusts: NA
Location:  42.76°N, 87.91°W
Report Text: KRAC 202253Z AUTO 31005KT 10SM BKN047 OVC060 12/06 A2995 RMK AO2 RAB2158E08 SLP145 P0000 T01170056
Loading
Personal Weather Stations






























Interactive Weather Map
Tropical Storm Tracking
New forecast layout! Learn more

10-Day Weather Forecast

Advertisements
Track Severe Weather on mobile